Time;durP1;ratioP1;P1;durP2;ratioP2;P2;SDS_P1;SDS_P2;PMS_P1;PMS_P2;Temp;Humidity;BMP_temperature;BMP_pressure;BME280_temperature;BME280_humidity;BME280_pressure;Samples;Min_cycle;Max_cycle;Signal;HPM_P1;HPM_P2
2023/04/29 00:00:00;;;;;;;16.98;15.98;;;;;;;;;;5035837;28;20025;-64
2023/04/29 00:02:25;;;;;;;17.95;16.95;;;;;;;;;;5034211;28;20053;-64
2023/04/29 00:04:51;;;;;;;18.10;17.10;;;;;;;;;;5034274;28;20029;-65
2023/04/29 00:07:16;;;;;;;17.35;16.35;;;;;;;;;;5032982;28;20049;-64
2023/04/29 00:09:42;;;;;;;17.20;16.23;;;;;;;;;;5035983;28;20036;-64
2023/04/29 00:12:08;;;;;;;17.92;16.95;;;;;;;;;;5036021;28;20085;-64
2023/04/29 00:14:34;;;;;;;17.52;16.55;;;;;;;;;;5031982;28;20044;-63
2023/04/29 00:16:59;;;;;;;17.35;16.38;;;;;;;;;;5036291;28;20021;-63
2023/04/29 00:19:24;;;;;;;17.88;16.88;;;;;;;;;;5035517;28;20041;-64
2023/04/29 00:21:51;;;;;;;18.50;17.50;;;;;;;;;;5035106;28;20036;-64
2023/04/29 00:24:16;;;;;;;18.48;17.48;;;;;;;;;;5032803;28;20076;-64
2023/04/29 00:26:41;;;;;;;17.85;16.85;;;;;;;;;;5036689;28;20647;-63
2023/04/29 00:29:07;;;;;;;18.50;17.50;;;;;;;;;;5037194;28;20514;-64
2023/04/29 00:31:32;;;;;;;19.42;18.38;;;;;;;;;;5034690;28;20486;-64
2023/04/29 00:33:58;;;;;;;21.83;20.65;;;;;;;;;;5055344;28;20375;-64
2023/04/29 00:36:25;;;;;;;19.02;17.98;;;;;;;;;;5036472;28;20052;-64
2023/04/29 00:38:50;;;;;;;19.67;18.60;;;;;;;;;;5038653;28;20033;-65
2023/04/29 00:41:15;;;;;;;19.25;18.23;;;;;;;;;;5036032;28;20044;-64
2023/04/29 00:43:41;;;;;;;18.23;17.23;;;;;;;;;;5035529;28;20049;-64
2023/04/29 00:46:06;;;;;;;16.73;15.80;;;;;;;;;;5036960;28;20082;-63
2023/04/29 00:48:32;;;;;;;17.05;16.10;;;;;;;;;;5033008;28;20045;-62
2023/04/29 00:50:58;;;;;;;17.77;16.77;;;;;;;;;;5033922;28;20090;-63
2023/04/29 00:53:23;;;;;;;18.40;17.40;;;;;;;;;;5035698;28;20517;-63
2023/04/29 00:55:50;;;;;;;18.65;17.65;;;;;;;;;;5034192;28;20037;-63
2023/04/29 00:58:17;;;;;;;17.73;16.73;;;;;;;;;;5036030;28;20068;-63
2023/04/29 01:00:43;;;;;;;18.40;17.40;;;;;;;;;;5034478;28;20076;-63
2023/04/29 01:03:09;;;;;;;18.27;17.27;;;;;;;;;;5036288;28;20076;-63
2023/04/29 01:05:35;;;;;;;17.25;16.30;;;;;;;;;;5035932;28;20089;-63
2023/04/29 01:08:11;;;;;;;16.85;15.90;;;;;;;;;;5034517;28;20033;-64
2023/04/29 01:10:43;;;;;;;16.33;15.43;;;;;;;;;;5034810;28;20033;-64
2023/04/29 01:13:17;;;;;;;18.05;17.02;;;;;;;;;;5034685;28;20132;-65
2023/04/29 01:16:02;;;;;;;17.35;16.35;;;;;;;;;;5026843;28;20454;-65
2023/04/29 01:18:47;;;;;;;15.80;14.90;;;;;;;;;;5030100;28;20040;-64
2023/04/29 01:21:12;;;;;;;16.98;15.98;;;;;;;;;;5033490;28;20033;-64
2023/04/29 01:23:37;;;;;;;17.45;16.48;;;;;;;;;;5037623;28;20113;-63
2023/04/29 01:26:04;;;;;;;19.20;18.13;;;;;;;;;;5035235;28;20033;-64
2023/04/29 01:28:47;;;;;;;19.08;17.98;;;;;;;;;;5031645;28;20037;-63
2023/04/29 01:31:12;;;;;;;19.05;17.95;;;;;;;;;;5035557;28;20047;-64
2023/04/29 01:33:45;;;;;;;21.33;20.08;;;;;;;;;;5031380;28;20448;-63
2023/04/29 01:36:46;;;;;;;19.02;17.98;;;;;;;;;;5035007;28;20060;-64
2023/04/29 01:39:40;;;;;;;15.90;15.00;;;;;;;;;;5021772;28;20130;-64
2023/04/29 01:42:17;;;;;;;16.63;15.68;;;;;;;;;;5035097;28;20030;-64
2023/04/29 01:44:42;;;;;;;16.92;15.98;;;;;;;;;;5034912;28;20557;-63
2023/04/29 01:47:12;;;;;;;17.85;16.75;;;;;;;;;;5033210;28;20049;-63
2023/04/29 01:49:38;;;;;;;19.23;18.08;;;;;;;;;;5033908;28;20103;-64
2023/04/29 01:52:04;;;;;;;19.10;17.55;;;;;;;;;;5034504;28;20032;-63
2023/04/29 01:54:29;;;;;;;18.95;17.75;;;;;;;;;;5030901;28;20132;-63
2023/04/29 01:56:56;;;;;;;17.75;16.75;;;;;;;;;;5035875;28;20037;-63
2023/04/29 01:59:21;;;;;;;17.65;16.65;;;;;;;;;;5034511;28;20330;-64
2023/04/29 02:01:47;;;;;;;16.13;15.23;;;;;;;;;;5033748;28;20503;-64
2023/04/29 02:04:12;;;;;;;15.80;14.90;;;;;;;;;;5030624;28;20041;-63
2023/04/29 02:06:38;;;;;;;16.25;15.15;;;;;;;;;;5031495;28;20466;-64
2023/04/29 02:09:03;;;;;;;15.85;14.95;;;;;;;;;;5033633;28;20079;-64
2023/04/29 02:11:28;;;;;;;15.27;14.38;;;;;;;;;;5032298;28;20057;-63
2023/04/29 02:13:54;;;;;;;14.43;13.63;;;;;;;;;;5055122;28;20037;-62
2023/04/29 02:16:19;;;;;;;16.00;15.10;;;;;;;;;;5034073;28;20034;-64
2023/04/29 02:18:45;;;;;;;15.70;14.80;;;;;;;;;;5035079;28;20052;-63
2023/04/29 02:21:11;;;;;;;17.13;16.13;;;;;;;;;;5066824;28;20035;-63
2023/04/29 02:23:36;;;;;;;17.27;16.25;;;;;;;;;;5035089;28;20103;-64
2023/04/29 02:26:06;;;;;;;18.40;17.10;;;;;;;;;;5037177;28;20111;-63
2023/04/29 02:28:33;;;;;;;16.58;15.68;;;;;;;;;;5038599;28;20037;-64
2023/04/29 02:30:58;;;;;;;18.17;17.05;;;;;;;;;;5035950;28;20029;-63
2023/04/29 02:33:23;;;;;;;17.88;16.88;;;;;;;;;;5037393;28;20047;-64
2023/04/29 02:35:49;;;;;;;17.33;16.38;;;;;;;;;;5043963;28;20021;-63
2023/04/29 02:38:14;;;;;;;15.88;14.98;;;;;;;;;;5038230;28;20073;-64
2023/04/29 02:40:43;;;;;;;17.38;16.38;;;;;;;;;;5034774;28;20060;-63
2023/04/29 02:43:09;;;;;;;17.02;16.10;;;;;;;;;;5035068;28;20033;-63
2023/04/29 02:45:35;;;;;;;17.35;16.38;;;;;;;;;;5038453;28;20033;-65
2023/04/29 02:48:01;;;;;;;17.92;16.92;;;;;;;;;;5033534;28;20025;-63
2023/04/29 02:50:26;;;;;;;17.45;16.45;;;;;;;;;;5040290;28;20040;-63
2023/04/29 02:52:52;;;;;;;17.42;16.42;;;;;;;;;;5040505;28;20065;-64
2023/04/29 02:55:17;;;;;;;18.27;17.27;;;;;;;;;;5053777;28;20048;-64
2023/04/29 02:57:42;;;;;;;18.30;17.30;;;;;;;;;;5035981;28;20049;-65
2023/04/29 03:00:09;;;;;;;17.58;16.58;;;;;;;;;;5035748;28;20378;-65
2023/04/29 03:02:34;;;;;;;20.38;19.27;;;;;;;;;;5036539;28;20038;-62
2023/04/29 03:04:59;;;;;;;19.25;18.15;;;;;;;;;;5036027;28;20486;-63
2023/04/29 03:07:25;;;;;;;19.40;18.33;;;;;;;;;;5035379;28;20778;-62
2023/04/29 03:09:50;;;;;;;19.35;18.25;;;;;;;;;;5035813;28;21979;-63
2023/04/29 03:12:15;;;;;;;19.17;18.08;;;;;;;;;;5045392;28;20045;-63
2023/04/29 03:14:41;;;;;;;19.23;18.15;;;;;;;;;;5034162;28;20041;-64
2023/04/29 03:17:06;;;;;;;18.77;17.73;;;;;;;;;;5039038;28;20037;-63
2023/04/29 03:19:32;;;;;;;19.73;18.65;;;;;;;;;;5035613;28;20064;-62
2023/04/29 03:21:57;;;;;;;19.02;18.00;;;;;;;;;;5032548;28;20387;-62
2023/04/29 03:24:22;;;;;;;18.42;17.42;;;;;;;;;;5035574;28;20040;-63
2023/04/29 03:26:48;;;;;;;19.13;18.08;;;;;;;;;;5035769;28;20126;-62
2023/04/29 03:29:13;;;;;;;19.42;18.35;;;;;;;;;;5037465;28;20153;-64
2023/04/29 03:31:39;;;;;;;18.30;17.30;;;;;;;;;;5037189;28;20053;-64
2023/04/29 03:34:04;;;;;;;20.10;19.00;;;;;;;;;;5035617;28;20052;-62
2023/04/29 03:36:29;;;;;;;19.60;18.52;;;;;;;;;;5036244;28;20037;-65
2023/04/29 03:38:55;;;;;;;20.08;18.98;;;;;;;;;;5035260;28;20029;-65
2023/04/29 03:41:22;;;;;;;19.00;17.95;;;;;;;;;;5035774;28;20115;-64
2023/04/29 03:43:48;;;;;;;19.48;18.33;;;;;;;;;;5034546;28;20057;-63
2023/04/29 03:46:13;;;;;;;17.35;16.35;;;;;;;;;;5036545;28;20046;-65
2023/04/29 03:48:38;;;;;;;19.33;18.27;;;;;;;;;;5032824;28;20048;-64
2023/04/29 03:51:04;;;;;;;17.58;16.60;;;;;;;;;;5035814;28;20443;-63
2023/04/29 03:53:30;;;;;;;16.55;15.65;;;;;;;;;;5036249;28;20026;-63
2023/04/29 03:55:55;;;;;;;17.75;16.75;;;;;;;;;;5037926;28;20358;-64
2023/04/29 03:58:22;;;;;;;17.20;16.20;;;;;;;;;;5036794;28;20037;-63
2023/04/29 04:00:48;;;;;;;16.90;15.90;;;;;;;;;;5024677;28;20424;-63
2023/04/29 04:03:13;;;;;;;18.10;17.00;;;;;;;;;;5035618;28;20049;-63
2023/04/29 04:05:38;;;;;;;16.40;15.50;;;;;;;;;;5038266;28;20051;-62
2023/04/29 04:08:04;;;;;;;15.30;14.40;;;;;;;;;;5034847;28;20032;-63
2023/04/29 04:10:29;;;;;;;15.88;14.98;;;;;;;;;;5036781;28;20036;-64
2023/04/29 04:12:55;;;;;;;15.85;14.95;;;;;;;;;;5036117;28;20120;-63
2023/04/29 04:15:21;;;;;;;17.27;15.80;;;;;;;;;;5034054;28;20056;-63
2023/04/29 04:17:46;;;;;;;15.32;14.43;;;;;;;;;;5033249;28;20048;-64
2023/04/29 04:20:12;;;;;;;13.98;13.18;;;;;;;;;;5033654;28;20435;-63
2023/04/29 04:22:38;;;;;;;15.35;14.45;;;;;;;;;;5035363;28;20068;-64
2023/04/29 04:25:04;;;;;;;16.20;15.30;;;;;;;;;;5036470;28;20044;-63
2023/04/29 04:27:29;;;;;;;14.73;13.82;;;;;;;;;;5034370;28;20101;-64
2023/04/29 04:29:55;;;;;;;15.82;14.93;;;;;;;;;;5033882;28;20051;-64
2023/04/29 04:32:23;;;;;;;15.25;14.35;;;;;;;;;;5034030;28;20029;-64
2023/04/29 04:34:49;;;;;;;15.07;14.18;;;;;;;;;;5036239;28;20057;-63
2023/04/29 04:37:15;;;;;;;15.25;14.35;;;;;;;;;;5034880;28;20068;-63
2023/04/29 04:39:40;;;;;;;15.90;15.00;;;;;;;;;;5033178;28;20037;-64
2023/04/29 04:42:06;;;;;;;15.80;14.80;;;;;;;;;;5042650;28;20099;-64
2023/04/29 04:44:32;;;;;;;16.13;15.23;;;;;;;;;;5034373;28;20045;-63
2023/04/29 04:46:59;;;;;;;15.93;14.98;;;;;;;;;;5033614;28;20032;-64
2023/04/29 04:49:26;;;;;;;16.63;15.70;;;;;;;;;;5032916;28;20099;-63
2023/04/29 04:51:52;;;;;;;16.33;15.40;;;;;;;;;;5031899;28;20072;-64
2023/04/29 04:54:17;;;;;;;15.82;14.93;;;;;;;;;;5034261;28;20045;-63
2023/04/29 04:56:42;;;;;;;15.13;14.18;;;;;;;;;;5033701;28;20115;-63
2023/04/29 04:59:08;;;;;;;17.85;16.80;;;;;;;;;;5035748;28;20041;-63
2023/04/29 05:01:33;;;;;;;14.38;13.57;;;;;;;;;;5030750;28;20547;-64
2023/04/29 05:03:59;;;;;;;14.85;13.95;;;;;;;;;;5027042;28;20064;-63
2023/04/29 05:06:25;;;;;;;15.00;14.10;;;;;;;;;;5033117;28;20059;-63
2023/04/29 05:08:50;;;;;;;13.48;12.68;;;;;;;;;;5032708;28;20095;-64
2023/04/29 05:11:20;;;;;;;14.85;13.85;;;;;;;;;;5035478;28;20041;-64
2023/04/29 05:13:46;;;;;;;14.68;13.88;;;;;;;;;;5031517;28;20051;-63
2023/04/29 05:16:12;;;;;;;16.95;15.93;;;;;;;;;;5036105;28;20029;-64
2023/04/29 05:18:37;;;;;;;15.25;14.35;;;;;;;;;;5033281;28;20541;-64
2023/04/29 05:21:03;;;;;;;16.02;15.13;;;;;;;;;;5033250;28;20087;-63
2023/04/29 05:23:28;;;;;;;15.90;14.90;;;;;;;;;;5033568;28;20067;-63
2023/04/29 05:25:54;;;;;;;14.63;13.77;;;;;;;;;;5028214;28;20037;-64
2023/04/29 05:28:19;;;;;;;13.77;12.88;;;;;;;;;;5029856;28;20033;-64
2023/04/29 05:30:45;;;;;;;14.60;13.70;;;;;;;;;;5036595;28;20148;-64
2023/04/29 05:33:10;;;;;;;12.82;12.02;;;;;;;;;;5034845;28;20045;-63
2023/04/29 05:35:36;;;;;;;13.40;12.60;;;;;;;;;;5029714;28;20049;-63
2023/04/29 05:38:02;;;;;;;14.13;13.18;;;;;;;;;;5033045;28;20037;-63
2023/04/29 05:40:27;;;;;;;13.48;12.68;;;;;;;;;;5035124;28;20084;-64
2023/04/29 05:42:53;;;;;;;12.93;12.13;;;;;;;;;;5032178;28;20049;-64
2023/04/29 05:45:18;;;;;;;13.15;12.35;;;;;;;;;;5031922;28;20047;-63
2023/04/29 05:47:44;;;;;;;14.57;13.52;;;;;;;;;;5065895;28;20344;-63
2023/04/29 05:50:10;;;;;;;14.63;13.57;;;;;;;;;;5034563;28;20510;-64
2023/04/29 05:52:36;;;;;;;14.35;13.35;;;;;;;;;;5031274;28;20037;-64
2023/04/29 05:55:01;;;;;;;14.70;13.80;;;;;;;;;;5031647;28;20449;-64
2023/04/29 05:57:26;;;;;;;15.15;14.23;;;;;;;;;;5031643;28;20037;-64
2023/04/29 05:59:54;;;;;;;16.67;15.57;;;;;;;;;;5034249;28;20032;-64
2023/04/29 06:02:19;;;;;;;16.42;15.43;;;;;;;;;;5033844;28;20037;-68
2023/04/29 06:04:46;;;;;;;16.90;15.90;;;;;;;;;;5056684;28;20040;-68
2023/04/29 06:07:12;;;;;;;18.80;17.58;;;;;;;;;;5035637;28;20033;-67
2023/04/29 06:09:38;;;;;;;19.33;18.23;;;;;;;;;;5032898;28;20048;-67
2023/04/29 06:12:03;;;;;;;19.63;18.52;;;;;;;;;;5038835;28;20090;-67
2023/04/29 06:14:29;;;;;;;18.23;17.17;;;;;;;;;;5030276;28;20029;-71
2023/04/29 06:16:54;;;;;;;19.25;18.05;;;;;;;;;;5029846;28;20036;-68
2023/04/29 06:19:20;;;;;;;16.33;15.27;;;;;;;;;;5035066;28;20041;-68
2023/04/29 06:21:45;;;;;;;14.50;13.25;;;;;;;;;;5035811;28;20064;-68
2023/04/29 06:24:11;;;;;;;16.83;15.82;;;;;;;;;;5033113;28;20033;-66
2023/04/29 06:26:36;;;;;;;11.70;11.00;;;;;;;;;;5031222;28;20041;-65
2023/04/29 06:29:02;;;;;;;11.90;11.13;;;;;;;;;;5032318;28;20236;-67
2023/04/29 06:31:27;;;;;;;12.10;11.32;;;;;;;;;;5033147;28;20032;-68
2023/04/29 06:33:53;;;;;;;11.65;10.65;;;;;;;;;;5031859;28;20414;-67
2023/04/29 06:36:19;;;;;;;10.95;10.25;;;;;;;;;;5034651;28;20128;-68
2023/04/29 06:38:44;;;;;;;13.95;12.95;;;;;;;;;;5035208;28;20585;-67
2023/04/29 06:41:09;;;;;;;12.80;12.00;;;;;;;;;;5034533;28;20040;-67
2023/04/29 06:43:35;;;;;;;12.48;11.65;;;;;;;;;;5034043;28;20084;-68
2023/04/29 06:46:00;;;;;;;13.85;13.05;;;;;;;;;;5034973;28;20032;-68
2023/04/29 06:48:26;;;;;;;11.93;11.02;;;;;;;;;;5035724;28;20356;-68
2023/04/29 06:50:54;;;;;;;11.02;10.32;;;;;;;;;;5037735;28;20364;-69
2023/04/29 06:53:21;;;;;;;11.43;10.73;;;;;;;;;;5033151;28;20037;-68
2023/04/29 06:55:46;;;;;;;11.32;10.60;;;;;;;;;;5034043;28;20038;-68
2023/04/29 06:58:15;;;;;;;11.10;10.40;;;;;;;;;;5037180;28;20032;-69
2023/04/29 07:00:49;;;;;;;11.52;10.82;;;;;;;;;;5037429;28;20741;-68
2023/04/29 07:03:16;;;;;;;11.00;10.30;;;;;;;;;;5029300;28;20361;-69
2023/04/29 07:05:44;;;;;;;12.02;10.48;;;;;;;;;;5033642;28;20033;-67
2023/04/29 07:08:10;;;;;;;12.63;11.82;;;;;;;;;;5034293;28;20041;-67
2023/04/29 07:10:35;;;;;;;11.20;10.50;;;;;;;;;;5032869;28;20517;-67
2023/04/29 07:13:01;;;;;;;12.00;11.30;;;;;;;;;;5069000;28;20037;-67
2023/04/29 07:15:27;;;;;;;10.90;10.20;;;;;;;;;;5030021;28;20219;-68
2023/04/29 07:17:53;;;;;;;10.80;10.10;;;;;;;;;;5031267;28;20068;-68
2023/04/29 07:20:19;;;;;;;11.00;10.30;;;;;;;;;;5038546;28;20073;-68
2023/04/29 07:22:44;;;;;;;11.38;10.68;;;;;;;;;;5036564;28;20076;-67
2023/04/29 07:25:10;;;;;;;11.60;10.80;;;;;;;;;;5037712;28;20045;-68
2023/04/29 07:27:35;;;;;;;10.40;9.80;;;;;;;;;;5037652;28;20041;-67
2023/04/29 07:30:02;;;;;;;12.32;11.15;;;;;;;;;;5036251;28;20036;-67
2023/04/29 07:32:27;;;;;;;10.18;9.57;;;;;;;;;;5034949;28;20530;-67
2023/04/29 07:34:52;;;;;;;10.70;10.00;;;;;;;;;;5036290;28;20076;-70
2023/04/29 07:37:18;;;;;;;11.00;10.30;;;;;;;;;;5034437;28;20111;-68
2023/04/29 07:39:43;;;;;;;11.70;11.00;;;;;;;;;;5038096;28;20379;-68
2023/04/29 07:42:08;;;;;;;11.75;11.05;;;;;;;;;;5035941;28;20130;-68
2023/04/29 07:44:35;;;;;;;11.95;11.07;;;;;;;;;;5035264;28;20052;-67
2023/04/29 07:47:00;;;;;;;11.73;11.02;;;;;;;;;;5035624;28;20514;-56
2023/04/29 07:49:26;;;;;;;11.40;10.70;;;;;;;;;;5035135;28;20131;-56
2023/04/29 07:51:51;;;;;;;11.50;10.73;;;;;;;;;;5034537;28;20355;-54
2023/04/29 07:54:18;;;;;;;11.77;10.95;;;;;;;;;;5036760;28;20465;-56
2023/04/29 07:56:43;;;;;;;10.85;10.15;;;;;;;;;;5035207;28;20482;-56
2023/04/29 07:59:09;;;;;;;10.73;10.02;;;;;;;;;;5036596;28;20041;-56
2023/04/29 08:01:34;;;;;;;11.20;10.50;;;;;;;;;;5033424;28;20032;-55
2023/04/29 08:04:00;;;;;;;10.88;10.18;;;;;;;;;;5033177;28;20536;-57
2023/04/29 08:06:26;;;;;;;11.88;11.07;;;;;;;;;;5036327;28;20052;-56
2023/04/29 08:08:51;;;;;;;10.65;10.05;;;;;;;;;;5032884;28;20466;-55
2023/04/29 08:11:20;;;;;;;10.10;9.48;;;;;;;;;;5035762;28;20475;-55
2023/04/29 08:13:46;;;;;;;11.55;10.85;;;;;;;;;;5034364;28;20560;-56
2023/04/29 08:16:12;;;;;;;10.60;9.90;;;;;;;;;;5036879;28;20037;-55
2023/04/29 08:18:38;;;;;;;11.45;10.68;;;;;;;;;;5037493;28;20048;-55
2023/04/29 08:21:03;;;;;;;11.95;11.15;;;;;;;;;;5052874;28;20033;-54
2023/04/29 08:23:29;;;;;;;12.43;11.63;;;;;;;;;;5034886;28;20470;-55
2023/04/29 08:25:54;;;;;;;10.73;10.05;;;;;;;;;;5034329;28;20029;-55
2023/04/29 08:28:24;;;;;;;11.27;10.57;;;;;;;;;;5036144;28;20113;-56
2023/04/29 08:30:49;;;;;;;11.60;10.82;;;;;;;;;;5037328;28;20351;-56
2023/04/29 08:33:15;;;;;;;10.68;9.98;;;;;;;;;;5033158;28;20043;-56
2023/04/29 08:35:41;;;;;;;11.57;10.77;;;;;;;;;;5032894;28;20434;-57
2023/04/29 08:38:08;;;;;;;10.38;9.70;;;;;;;;;;5035947;28;20052;-55
2023/04/29 08:40:41;;;;;;;11.52;10.73;;;;;;;;;;5033892;28;20044;-56
2023/04/29 08:43:08;;;;;;;12.13;11.32;;;;;;;;;;5033931;28;20447;-57
2023/04/29 08:45:35;;;;;;;10.13;9.52;;;;;;;;;;5035846;28;20435;-56
2023/04/29 08:48:02;;;;;;;10.10;9.50;;;;;;;;;;5032380;28;20106;-67
2023/04/29 08:50:29;;;;;;;11.30;10.52;;;;;;;;;;5037976;28;20075;-67
2023/04/29 08:52:55;;;;;;;10.75;10.05;;;;;;;;;;5035683;28;20095;-67
2023/04/29 08:55:20;;;;;;;10.98;10.27;;;;;;;;;;5036984;28;20033;-66
2023/04/29 08:57:49;;;;;;;10.65;9.95;;;;;;;;;;5035542;28;20052;-66
2023/04/29 09:00:14;;;;;;;10.32;9.73;;;;;;;;;;5034239;28;20463;-68
2023/04/29 09:02:45;;;;;;;10.13;9.52;;;;;;;;;;5032678;28;20048;-65
2023/04/29 09:05:10;;;;;;;10.95;10.25;;;;;;;;;;5035724;28;20353;-66
2023/04/29 09:07:40;;;;;;;10.75;10.00;;;;;;;;;;5035000;28;20090;-67
2023/04/29 09:10:07;;;;;;;11.18;10.32;;;;;;;;;;5034026;28;20482;-57
2023/04/29 09:12:32;;;;;;;10.70;10.00;;;;;;;;;;5033228;28;20030;-57
2023/04/29 09:14:58;;;;;;;11.23;10.45;;;;;;;;;;5035487;28;20048;-57
2023/04/29 09:17:40;;;;;;;11.52;10.73;;;;;;;;;;5033051;28;20034;-55
2023/04/29 09:20:21;;;;;;;11.50;10.75;;;;;;;;;;5031432;28;20075;-68
2023/04/29 09:22:54;;;;;;;11.57;10.77;;;;;;;;;;5064569;28;20112;-69
2023/04/29 09:25:20;;;;;;;11.48;10.77;;;;;;;;;;5033143;28;20033;-66
2023/04/29 09:27:46;;;;;;;11.80;11.00;;;;;;;;;;5036024;28;20037;-58
2023/04/29 09:30:12;;;;;;;11.52;10.82;;;;;;;;;;5034424;28;20736;-56
2023/04/29 09:32:38;;;;;;;11.95;11.15;;;;;;;;;;5032483;28;20073;-56
2023/04/29 09:35:39;;;;;;;10.98;10.27;;;;;;;;;;5039751;28;20513;-57
2023/04/29 09:38:08;;;;;;;10.98;10.05;;;;;;;;;;5019674;28;20044;-57
2023/04/29 09:40:34;;;;;;;11.52;10.82;;;;;;;;;;5030439;28;20131;-58
2023/04/29 09:43:00;;;;;;;11.95;11.23;;;;;;;;;;5030938;28;20111;-59
2023/04/29 09:45:45;;;;;;;12.10;11.40;;;;;;;;;;5036069;28;20269;-59
2023/04/29 09:48:11;;;;;;;12.23;11.52;;;;;;;;;;5036627;28;20044;-57
2023/04/29 09:50:41;;;;;;;12.40;11.70;;;;;;;;;;5036357;28;20033;-58
2023/04/29 09:53:08;;;;;;;12.00;11.20;;;;;;;;;;5036021;28;20434;-58
2023/04/29 09:55:51;;;;;;;10.77;10.07;;;;;;;;;;5035186;28;20353;-58
2023/04/29 09:58:39;;;;;;;10.80;10.10;;;;;;;;;;5034332;28;20110;-57
2023/04/29 10:01:05;;;;;;;12.25;11.45;;;;;;;;;;5033109;28;20519;-58
2023/04/29 10:03:34;;;;;;;10.77;10.07;;;;;;;;;;5034683;28;20109;-58
2023/04/29 10:06:02;;;;;;;10.93;10.23;;;;;;;;;;5035098;28;20064;-57
2023/04/29 10:08:29;;;;;;;10.38;9.73;;;;;;;;;;5034087;28;20540;-58
2023/04/29 10:11:14;;;;;;;12.50;11.70;;;;;;;;;;5034165;28;20557;-58
2023/04/29 10:13:41;;;;;;;11.25;10.55;;;;;;;;;;5034938;28;20135;-68
2023/04/29 10:16:09;;;;;;;12.40;11.40;;;;;;;;;;5036164;28;20163;-68
2023/04/29 10:18:36;;;;;;;11.98;11.27;;;;;;;;;;5033724;28;20071;-68
2023/04/29 10:21:08;;;;;;;10.23;9.52;;;;;;;;;;5034980;28;20048;-57
2023/04/29 10:23:43;;;;;;;11.30;10.32;;;;;;;;;;5029970;28;20037;-55
2023/04/29 10:26:12;;;;;;;11.05;10.35;;;;;;;;;;5035806;28;20044;-57
2023/04/29 10:28:39;;;;;;;10.38;9.73;;;;;;;;;;5034226;28;20155;-55
2023/04/29 10:31:06;;;;;;;10.77;10.07;;;;;;;;;;5036049;28;20028;-57
2023/04/29 10:33:34;;;;;;;11.32;10.63;;;;;;;;;;5032684;28;20387;-57
2023/04/29 10:36:01;;;;;;;10.52;9.82;;;;;;;;;;5033904;28;20044;-58
2023/04/29 10:38:39;;;;;;;10.82;10.18;;;;;;;;;;5032994;28;20040;-57
2023/04/29 10:41:13;;;;;;;10.90;10.20;;;;;;;;;;5034187;28;20128;-57
2023/04/29 10:43:39;;;;;;;13.55;12.75;;;;;;;;;;5034480;28;20068;-57
2023/04/29 10:46:22;;;;;;;11.43;10.73;;;;;;;;;;5034621;28;20123;-57
2023/04/29 10:48:51;;;;;;;12.50;11.70;;;;;;;;;;5035832;28;20044;-58
2023/04/29 10:51:31;;;;;;;12.32;11.52;;;;;;;;;;5040395;28;20043;-57
2023/04/29 10:54:02;;;;;;;12.35;11.65;;;;;;;;;;5034775;28;20033;-56
2023/04/29 10:56:39;;;;;;;12.90;12.00;;;;;;;;;;5053111;28;20132;-56
2023/04/29 10:59:08;;;;;;;11.27;10.57;;;;;;;;;;5037813;28;20033;-56
2023/04/29 11:01:41;;;;;;;12.10;11.35;;;;;;;;;;5038730;28;20029;-56
2023/04/29 11:04:06;;;;;;;13.00;12.23;;;;;;;;;;5038270;28;20046;-57
2023/04/29 11:06:35;;;;;;;12.48;11.77;;;;;;;;;;5036872;28;20025;-58
2023/04/29 11:09:25;;;;;;;12.00;11.30;;;;;;;;;;5036256;28;20032;-57
2023/04/29 11:11:54;;;;;;;13.02;12.23;;;;;;;;;;5035134;28;20115;-55
2023/04/29 11:14:28;;;;;;;11.85;11.15;;;;;;;;;;5034731;28;20049;-57
2023/04/29 11:16:57;;;;;;;12.50;11.75;;;;;;;;;;5042839;28;20678;-57
2023/04/29 11:19:25;;;;;;;12.80;12.02;;;;;;;;;;5036404;28;20033;-57
2023/04/29 11:22:10;;;;;;;11.55;10.85;;;;;;;;;;5034027;28;20041;-58
2023/04/29 11:24:47;;;;;;;11.40;10.70;;;;;;;;;;5034676;28;20106;-57
2023/04/29 11:27:12;;;;;;;11.85;11.15;;;;;;;;;;5044397;28;20044;-58
2023/04/29 11:29:38;;;;;;;13.90;13.10;;;;;;;;;;5037140;28;20025;-58
2023/04/29 11:32:04;;;;;;;17.90;16.90;;;;;;;;;;5032283;28;20033;-58
2023/04/29 11:34:29;;;;;;;14.77;13.98;;;;;;;;;;5032893;28;20089;-58
2023/04/29 11:36:55;;;;;;;18.95;17.85;;;;;;;;;;5036832;28;20111;-58
2023/04/29 11:39:20;;;;;;;19.88;18.77;;;;;;;;;;5035500;28;20036;-58
2023/04/29 11:41:45;;;;;;;18.65;17.65;;;;;;;;;;5035263;28;20033;-58
2023/04/29 11:44:11;;;;;;;19.60;18.50;;;;;;;;;;5036768;28;20029;-59
2023/04/29 11:46:36;;;;;;;16.20;15.20;;;;;;;;;;5036699;28;20302;-58
2023/04/29 11:49:02;;;;;;;14.00;13.00;;;;;;;;;;5033111;28;20103;-58
2023/04/29 11:51:28;;;;;;;13.70;12.90;;;;;;;;;;5035682;28;20033;-59
2023/04/29 11:53:54;;;;;;;12.55;11.85;;;;;;;;;;5032213;28;20041;-59
2023/04/29 11:56:24;;;;;;;12.05;11.35;;;;;;;;;;5065928;28;20033;-57
2023/04/29 11:58:54;;;;;;;11.65;10.93;;;;;;;;;;5032793;28;20510;-58
2023/04/29 12:01:20;;;;;;;11.68;10.98;;;;;;;;;;5035088;28;20346;-59
2023/04/29 12:03:48;;;;;;;12.10;11.40;;;;;;;;;;5036054;28;20048;-58
2023/04/29 12:06:14;;;;;;;13.07;12.23;;;;;;;;;;5036224;28;20108;-58
2023/04/29 12:08:39;;;;;;;11.98;11.27;;;;;;;;;;5035425;28;20028;-58
2023/04/29 12:11:06;;;;;;;13.10;12.30;;;;;;;;;;5036089;28;20033;-59
2023/04/29 12:13:34;;;;;;;12.02;11.32;;;;;;;;;;5035949;28;20501;-58
2023/04/29 12:16:00;;;;;;;12.32;11.60;;;;;;;;;;5039573;28;20072;-58
2023/04/29 12:18:28;;;;;;;13.40;12.60;;;;;;;;;;5034663;28;20041;-59
2023/04/29 12:20:54;;;;;;;12.73;11.93;;;;;;;;;;5031501;28;20040;-58
2023/04/29 12:23:22;;;;;;;13.00;12.20;;;;;;;;;;5035507;28;20028;-58
2023/04/29 12:25:57;;;;;;;13.00;12.23;;;;;;;;;;5033714;28;20057;-58
2023/04/29 12:28:23;;;;;;;15.05;14.20;;;;;;;;;;5035195;28;20068;-61
2023/04/29 12:30:52;;;;;;;16.92;15.98;;;;;;;;;;5036141;28;20115;-59
2023/04/29 12:33:20;;;;;;;13.10;12.30;;;;;;;;;;5033408;28;20032;-59
2023/04/29 12:35:47;;;;;;;12.77;12.07;;;;;;;;;;5036599;28;20385;-58
2023/04/29 12:38:16;;;;;;;12.02;11.32;;;;;;;;;;5034320;28;20148;-59
2023/04/29 12:40:43;;;;;;;12.32;11.63;;;;;;;;;;5032509;28;20044;-59
2023/04/29 12:43:09;;;;;;;12.02;11.32;;;;;;;;;;5035672;28;20127;-60
2023/04/29 12:45:35;;;;;;;12.15;11.45;;;;;;;;;;5034107;28;20032;-61
2023/04/29 12:48:01;;;;;;;13.95;13.15;;;;;;;;;;5034806;28;20029;-59
2023/04/29 12:50:31;;;;;;;12.30;11.60;;;;;;;;;;5033906;28;20043;-59
2023/04/29 12:52:57;;;;;;;;;;;;;;;;;;5035974;28;20064;-58
2023/04/29 12:55:23;;;;;;;12.20;11.50;;;;;;;;;;5035691;28;19947;-58
2023/04/29 12:57:49;;;;;;;12.38;11.68;;;;;;;;;;5033616;28;20025;-58
2023/04/29 13:00:14;;;;;;;16.25;15.35;;;;;;;;;;5036314;28;20799;-58
2023/04/29 13:02:40;;;;;;;12.18;11.38;;;;;;;;;;5030964;28;20075;-58
2023/04/29 13:05:06;;;;;;;12.55;11.85;;;;;;;;;;5034423;28;20049;-58
2023/04/29 13:07:31;;;;;;;12.68;11.95;;;;;;;;;;5033705;28;20040;-58
2023/04/29 13:09:56;;;;;;;12.57;11.77;;;;;;;;;;5034528;28;20095;-58
2023/04/29 13:12:22;;;;;;;13.27;12.48;;;;;;;;;;5033844;28;20040;-58
2023/04/29 13:14:47;;;;;;;12.75;11.93;;;;;;;;;;5033514;28;20033;-58
2023/04/29 13:17:12;;;;;;;13.25;12.45;;;;;;;;;;5032906;28;20099;-58
2023/04/29 13:19:38;;;;;;;12.05;11.35;;;;;;;;;;5031076;28;20057;-58
2023/04/29 13:22:04;;;;;;;12.02;11.32;;;;;;;;;;5057043;28;20033;-57
2023/04/29 13:24:29;;;;;;;12.50;11.65;;;;;;;;;;5037574;28;20410;-57
2023/04/29 13:26:54;;;;;;;11.88;11.18;;;;;;;;;;5036557;28;20033;-58
2023/04/29 13:29:20;;;;;;;12.55;11.85;;;;;;;;;;5037432;28;20554;-59
2023/04/29 13:31:45;;;;;;;11.25;10.55;;;;;;;;;;5036899;28;20108;-58
2023/04/29 13:34:10;;;;;;;11.57;10.88;;;;;;;;;;5033180;28;20056;-59
2023/04/29 13:36:36;;;;;;;11.30;10.60;;;;;;;;;;5034990;28;20036;-58
2023/04/29 13:39:01;;;;;;;11.23;10.52;;;;;;;;;;5036698;28;20041;-58
2023/04/29 13:41:26;;;;;;;10.93;10.23;;;;;;;;;;5035031;28;20025;-69
2023/04/29 13:43:52;;;;;;;11.90;11.20;;;;;;;;;;5035347;28;20045;-68
2023/04/29 13:46:17;;;;;;;12.25;11.45;;;;;;;;;;5036925;28;20040;-58
2023/04/29 13:48:42;;;;;;;11.98;11.18;;;;;;;;;;5033447;28;20035;-59
2023/04/29 13:51:08;;;;;;;11.50;10.80;;;;;;;;;;5035530;28;20040;-58
2023/04/29 13:53:33;;;;;;;10.98;10.27;;;;;;;;;;5031415;28;20041;-58
2023/04/29 13:55:58;;;;;;;11.43;10.73;;;;;;;;;;5033585;28;20102;-69
2023/04/29 13:58:24;;;;;;;11.05;10.35;;;;;;;;;;5033681;28;20469;-69
2023/04/29 14:00:49;;;;;;;11.30;10.60;;;;;;;;;;5032017;28;20522;-69
2023/04/29 14:03:17;;;;;;;11.93;11.18;;;;;;;;;;5063994;28;20932;-69
2023/04/29 14:05:43;;;;;;;11.25;10.55;;;;;;;;;;5034663;28;20028;-69
2023/04/29 14:08:08;;;;;;;11.73;11.02;;;;;;;;;;5031117;28;20299;-68
2023/04/29 14:10:34;;;;;;;11.57;10.88;;;;;;;;;;5032766;28;20037;-69
2023/04/29 14:12:59;;;;;;;12.35;11.65;;;;;;;;;;5063175;28;20131;-69
2023/04/29 14:15:25;;;;;;;11.77;11.07;;;;;;;;;;5033273;28;20033;-68
2023/04/29 14:17:50;;;;;;;11.10;10.40;;;;;;;;;;5040903;28;20045;-68